createdAt,value
2024-01-16T00:01:06.993Z,4.17
2024-01-16T00:03:35.224Z,3.70
2024-01-16T00:06:03.754Z,4.40
2024-01-16T00:08:31.967Z,3.77
2024-01-16T00:11:03.839Z,4.10
2024-01-16T00:13:33.212Z,3.90
2024-01-16T00:16:03.454Z,2.97
2024-01-16T00:18:31.860Z,3.53
2024-01-16T00:21:03.088Z,3.90
2024-01-16T00:23:32.747Z,2.60
2024-01-16T00:26:02.526Z,3.80
2024-01-16T00:28:30.744Z,3.40
2024-01-16T00:30:58.909Z,4.20
2024-01-16T00:33:28.513Z,3.67
2024-01-16T00:35:56.744Z,3.93
2024-01-16T00:38:24.965Z,3.80
2024-01-16T00:40:53.236Z,3.17
2024-01-16T00:43:22.725Z,4.50
2024-01-16T00:45:50.882Z,3.10
2024-01-16T00:48:20.563Z,3.20
2024-01-16T00:50:50.343Z,3.10
2024-01-16T00:53:18.743Z,3.47
2024-01-16T00:55:47.139Z,3.50
2024-01-16T00:58:15.356Z,2.80
2024-01-16T01:00:45.284Z,3.70
2024-01-16T01:03:13.734Z,2.73
2024-01-16T01:05:42.317Z,2.70
2024-01-16T01:08:10.570Z,2.87
2024-01-16T01:10:38.954Z,2.73
2024-01-16T01:13:07.272Z,2.67
2024-01-16T01:15:34.574Z,2.87
2024-01-16T01:18:05.100Z,3.23
2024-01-16T01:20:33.953Z,2.60
2024-01-16T01:23:02.371Z,3.33
2024-01-16T01:25:30.675Z,2.70
2024-01-16T01:27:58.914Z,3.30
2024-01-16T01:30:27.106Z,2.50
2024-01-16T01:32:55.479Z,3.40
2024-01-16T01:35:25.345Z,2.77
2024-01-16T01:37:53.579Z,2.97
2024-01-16T01:40:21.742Z,3.17
2024-01-16T01:42:50.052Z,3.40
2024-01-16T01:45:18.535Z,2.77
2024-01-16T01:47:47.514Z,3.40
2024-01-16T01:50:16.788Z,3.20
2024-01-16T01:52:47.020Z,3.08
2024-01-16T01:55:17.173Z,3.00
2024-01-16T01:57:45.582Z,2.90
2024-01-16T02:00:18.773Z,2.90
2024-01-16T02:02:48.528Z,2.43
2024-01-16T02:05:17.630Z,3.50
2024-01-16T02:07:47.585Z,3.00
2024-01-16T02:10:16.048Z,3.10
2024-01-16T02:12:44.533Z,3.20
2024-01-16T02:15:13.480Z,2.60
2024-01-16T02:17:41.775Z,3.50
2024-01-16T02:20:12.155Z,2.50
2024-01-16T02:22:43.606Z,3.20
2024-01-16T02:25:13.336Z,3.53
2024-01-16T02:27:41.500Z,3.10
2024-01-16T02:30:10.314Z,3.60
2024-01-16T02:32:39.180Z,3.10
2024-01-16T02:35:08.339Z,2.80
2024-01-16T02:37:36.543Z,3.42
2024-01-16T02:40:07.198Z,2.90
2024-01-16T02:42:37.214Z,3.83
2024-01-16T02:45:06.543Z,3.20
2024-01-16T02:47:35.279Z,3.13
2024-01-16T02:50:04.649Z,2.63
2024-01-16T02:52:33.139Z,2.30
2024-01-16T02:55:01.314Z,3.50
2024-01-16T02:57:29.662Z,3.40
2024-01-16T02:59:59.174Z,2.47
2024-01-16T03:02:27.428Z,2.65
2024-01-16T03:04:56.042Z,3.33
2024-01-16T03:07:24.250Z,3.77
2024-01-16T03:09:52.515Z,2.33
2024-01-16T03:12:20.676Z,2.70
2024-01-16T03:14:48.904Z,3.27
2024-01-16T03:17:18.460Z,3.20
2024-01-16T03:19:46.666Z,3.53
2024-01-16T03:22:14.949Z,2.27
2024-01-16T03:24:43.168Z,2.90
2024-01-16T03:27:11.331Z,2.77
2024-01-16T03:29:39.691Z,2.83
2024-01-16T03:32:08.037Z,3.70
2024-01-16T03:34:37.625Z,2.83
2024-01-16T03:37:05.982Z,3.77
2024-01-16T03:39:34.154Z,3.20
2024-01-16T03:42:02.366Z,3.40
2024-01-16T03:44:30.616Z,3.10
2024-01-16T03:46:58.769Z,2.87
2024-01-16T03:49:27.239Z,3.30
2024-01-16T03:51:56.784Z,2.95
2024-01-16T03:54:24.998Z,3.20
2024-01-16T03:56:53.377Z,3.30
2024-01-16T03:59:21.718Z,3.00
2024-01-16T04:01:50.531Z,3.90
2024-01-16T04:04:19.048Z,3.30
2024-01-16T04:06:48.680Z,3.40
2024-01-16T04:09:18.233Z,3.83
2024-01-16T04:11:48.502Z,3.45
2024-01-16T04:14:16.935Z,3.50
2024-01-16T04:16:45.137Z,3.43
2024-01-16T04:19:13.769Z,3.53
2024-01-16T04:21:42.096Z,2.97
2024-01-16T04:24:10.256Z,3.20
2024-01-16T04:26:39.946Z,3.40
2024-01-16T04:29:09.353Z,2.97
2024-01-16T04:31:42.337Z,3.10
2024-01-16T04:34:10.576Z,3.13
2024-01-16T04:36:38.789Z,3.35
2024-01-16T04:39:06.916Z,3.67
2024-01-16T04:41:35.163Z,3.38
2024-01-16T04:44:05.003Z,3.70
2024-01-16T04:46:33.292Z,3.43
2024-01-16T04:49:01.560Z,3.40
2024-01-16T04:51:29.788Z,4.55
2024-01-16T04:53:57.958Z,3.15
2024-01-16T04:56:26.282Z,3.70
2024-01-16T04:58:54.490Z,4.13
2024-01-16T05:01:24.049Z,4.15
2024-01-16T05:03:52.276Z,4.10
2024-01-16T05:06:20.671Z,3.15
2024-01-16T05:08:49.720Z,3.25
2024-01-16T05:11:17.986Z,3.33
2024-01-16T05:13:46.351Z,3.35
2024-01-16T05:16:15.465Z,4.10
2024-01-16T05:18:45.473Z,3.70
2024-01-16T05:21:13.717Z,4.37
2024-01-16T05:23:41.943Z,3.33
2024-01-16T05:26:10.222Z,3.83
2024-01-16T05:28:38.491Z,3.27
2024-01-16T05:31:07.006Z,4.33
2024-01-16T05:33:35.260Z,3.50
2024-01-16T05:36:05.247Z,3.63
2024-01-16T05:38:34.760Z,3.47
2024-01-16T05:41:03.301Z,3.97
2024-01-16T05:43:31.826Z,3.78
2024-01-16T05:46:00.043Z,4.78
2024-01-16T05:48:28.934Z,3.50
2024-01-16T05:50:57.225Z,3.63
2024-01-16T05:53:26.816Z,3.35
2024-01-16T05:55:55.624Z,4.30
2024-01-16T05:58:23.894Z,3.57
2024-01-16T06:00:52.116Z,3.90
2024-01-16T06:03:20.362Z,3.53
2024-01-16T06:05:48.603Z,3.80
2024-01-16T06:08:16.923Z,3.60
2024-01-16T06:10:48.010Z,3.90
2024-01-16T06:13:16.194Z,3.75
2024-01-16T06:15:44.384Z,4.45
2024-01-16T06:18:12.797Z,3.70
2024-01-16T06:20:41.316Z,3.40
2024-01-16T06:23:09.615Z,3.60
2024-01-16T06:25:37.886Z,3.72
2024-01-16T06:28:08.358Z,4.15
2024-01-16T06:30:36.705Z,3.53
2024-01-16T06:33:06.170Z,4.30
2024-01-16T06:35:34.565Z,2.80
2024-01-16T06:38:04.130Z,3.38
2024-01-16T06:40:32.637Z,3.45
2024-01-16T06:43:00.992Z,3.40
2024-01-16T06:45:30.704Z,3.30
2024-01-16T06:47:58.998Z,3.83
2024-01-16T06:50:27.298Z,3.70
2024-01-16T06:52:55.544Z,3.60
2024-01-16T06:55:24.009Z,3.35
2024-01-16T06:57:52.175Z,4.45
2024-01-16T07:00:20.764Z,3.10
2024-01-16T07:02:52.437Z,2.85
2024-01-16T07:05:21.098Z,3.50
2024-01-16T07:07:49.518Z,3.22
2024-01-16T07:10:19.970Z,3.10
2024-01-16T07:12:50.089Z,3.42
2024-01-16T07:15:18.386Z,3.47
2024-01-16T07:17:46.908Z,3.20
2024-01-16T07:20:17.123Z,3.42
2024-01-16T07:22:45.361Z,4.60
2024-01-16T07:25:16.504Z,3.72
2024-01-16T07:27:47.640Z,4.13
2024-01-16T07:30:16.435Z,2.90
2024-01-16T07:32:43.871Z,3.92
2024-01-16T07:35:12.136Z,4.20
2024-01-16T07:37:41.913Z,3.47
2024-01-16T07:40:10.966Z,3.50
2024-01-16T07:42:39.129Z,3.97
2024-01-16T07:45:08.667Z,3.75
2024-01-16T07:47:37.363Z,3.25
2024-01-16T07:50:08.789Z,4.40
2024-01-16T07:52:37.293Z,2.97
2024-01-16T07:55:07.390Z,3.60
2024-01-16T07:57:35.712Z,3.42
2024-01-16T08:00:04.419Z,4.22
2024-01-16T08:02:35.456Z,3.40
2024-01-16T08:05:03.992Z,3.90
2024-01-16T08:07:32.546Z,3.90
2024-01-16T08:10:00.710Z,3.33
2024-01-16T08:12:30.199Z,4.13
2024-01-16T08:14:58.634Z,3.40
2024-01-16T08:17:27.025Z,3.05
2024-01-16T08:19:55.388Z,3.30
2024-01-16T08:22:23.558Z,2.97
2024-01-16T08:24:51.945Z,4.68
2024-01-16T08:27:21.574Z,2.70
2024-01-16T08:29:51.413Z,3.30
2024-01-16T08:32:19.666Z,3.50
2024-01-16T08:34:48.539Z,6.10
2024-01-16T08:37:16.950Z,3.23
2024-01-16T08:39:45.155Z,3.30
2024-01-16T08:42:13.763Z,3.43
2024-01-16T08:44:41.988Z,2.80
2024-01-16T08:47:11.692Z,2.53
2024-01-16T08:49:40.948Z,3.77
2024-01-16T08:52:09.263Z,3.33
2024-01-16T08:54:37.444Z,3.00
2024-01-16T08:57:06.404Z,3.43
2024-01-16T08:59:34.633Z,3.53
2024-01-16T09:02:04.558Z,3.47
2024-01-16T09:04:35.095Z,3.10
2024-01-16T09:07:05.744Z,3.53
2024-01-16T09:09:34.193Z,3.10
2024-01-16T09:12:09.843Z,2.60
2024-01-16T09:14:38.083Z,3.20
2024-01-16T09:17:06.621Z,3.30
2024-01-16T09:19:36.187Z,2.77
2024-01-16T09:22:05.135Z,2.73
2024-01-16T09:24:33.392Z,3.17
2024-01-16T09:27:01.607Z,3.23
2024-01-16T09:29:29.774Z,2.93
2024-01-16T09:31:58.732Z,2.50
2024-01-16T09:34:27.115Z,3.50
2024-01-16T09:37:00.382Z,3.30
2024-01-16T09:39:28.654Z,4.07
2024-01-16T09:42:01.123Z,4.07
2024-01-16T09:44:30.461Z,2.90
2024-01-16T09:47:04.404Z,2.87
2024-01-16T09:49:32.812Z,2.83
2024-01-16T09:52:02.885Z,3.60
2024-01-16T09:54:31.167Z,3.30
2024-01-16T09:57:05.013Z,3.70
2024-01-16T09:59:36.668Z,2.90
2024-01-16T10:02:07.774Z,3.67
2024-01-16T10:04:36.675Z,3.60
2024-01-16T10:07:07.441Z,3.60
2024-01-16T10:09:35.799Z,3.90
2024-01-16T10:12:05.043Z,3.73
2024-01-16T10:14:33.993Z,3.90
2024-01-16T10:17:06.489Z,3.80
2024-01-16T10:19:43.140Z,4.10
2024-01-16T10:22:26.704Z,4.30
2024-01-16T10:25:08.372Z,3.77
2024-01-16T10:27:37.974Z,3.50
2024-01-16T10:30:08.278Z,4.10
2024-01-16T10:32:38.995Z,3.30
2024-01-16T10:35:12.034Z,3.67
2024-01-16T10:37:46.593Z,3.47
2024-01-16T10:40:19.998Z,3.30
2024-01-16T10:42:59.991Z,3.67
2024-01-16T10:45:28.647Z,4.97
2024-01-16T10:48:05.355Z,3.20
2024-01-16T10:50:35.132Z,2.77
2024-01-16T10:53:07.375Z,3.63
2024-01-16T10:55:51.844Z,3.60
2024-01-16T10:58:24.548Z,4.20
2024-01-16T11:00:55.383Z,3.20
2024-01-16T11:03:36.663Z,3.13
2024-01-16T11:06:09.921Z,3.90
2024-01-16T11:08:42.073Z,4.20
2024-01-16T11:11:10.834Z,3.77
2024-01-16T11:13:42.142Z,4.17
2024-01-16T11:16:12.883Z,2.93
2024-01-16T11:18:41.851Z,4.13
2024-01-16T11:21:17.507Z,3.40
2024-01-16T11:23:49.478Z,3.37
2024-01-16T11:26:29.286Z,3.43
2024-01-16T11:28:58.196Z,4.40
2024-01-16T11:31:33.756Z,4.13
2024-01-16T11:34:04.320Z,4.37
2024-01-16T11:36:53.088Z,4.30
2024-01-16T11:39:25.880Z,12.80
2024-01-16T11:41:56.668Z,4.77
2024-01-16T11:44:47.980Z,4.37
2024-01-16T11:47:21.834Z,3.63
2024-01-16T11:49:52.425Z,3.47
2024-01-16T11:52:43.770Z,3.30
2024-01-16T11:55:31.879Z,3.30
2024-01-16T11:58:28.597Z,3.77
2024-01-16T12:00:58.373Z,3.20
2024-01-16T12:03:34.087Z,3.37
2024-01-16T12:06:07.839Z,3.70
2024-01-16T12:08:37.766Z,3.40
2024-01-16T12:11:09.776Z,3.00
2024-01-16T12:13:37.958Z,3.40
2024-01-16T12:16:06.749Z,4.60
2024-01-16T12:18:42.454Z,3.90
2024-01-16T12:21:15.337Z,3.63
2024-01-16T12:23:52.256Z,3.47
2024-01-16T12:26:25.850Z,3.10
2024-01-16T12:28:58.604Z,3.53
2024-01-16T12:31:30.166Z,3.20
2024-01-16T12:34:09.206Z,2.80
2024-01-16T12:36:39.797Z,3.07
2024-01-16T12:39:12.831Z,3.50
2024-01-16T12:41:47.604Z,3.73
2024-01-16T12:44:17.581Z,3.50
2024-01-16T12:46:55.640Z,3.50
2024-01-16T12:49:25.455Z,4.00
2024-01-16T12:51:53.972Z,3.30
2024-01-16T12:54:25.114Z,3.27
2024-01-16T12:57:01.707Z,3.23
2024-01-16T12:59:31.681Z,2.87
2024-01-16T13:02:01.685Z,3.10
2024-01-16T13:04:29.944Z,3.20
2024-01-16T13:07:04.837Z,2.40
2024-01-16T13:09:33.364Z,3.00
2024-01-16T13:12:02.920Z,2.80
2024-01-16T13:14:31.582Z,2.73
2024-01-16T13:16:59.972Z,3.57
2024-01-16T13:19:30.211Z,2.37
2024-01-16T13:21:58.711Z,2.40
2024-01-16T13:24:26.845Z,2.20
2024-01-16T13:26:55.084Z,2.90
2024-01-16T13:29:24.788Z,3.60
2024-01-16T13:31:56.261Z,3.50
2024-01-16T13:34:26.777Z,3.73
2024-01-16T13:37:14.547Z,3.00
2024-01-16T13:39:45.013Z,2.73
2024-01-16T13:42:13.262Z,2.77
2024-01-16T13:44:43.157Z,3.50
2024-01-16T13:47:13.688Z,3.17
2024-01-16T13:49:44.559Z,3.20
2024-01-16T13:52:12.927Z,2.57
2024-01-16T13:54:41.374Z,2.70
2024-01-16T13:57:10.895Z,3.53
2024-01-16T13:59:43.302Z,2.90
2024-01-16T14:02:11.634Z,4.23
2024-01-16T14:04:39.961Z,4.17
2024-01-16T14:07:12.521Z,3.30
2024-01-16T14:09:45.089Z,4.00
2024-01-16T14:12:15.723Z,5.00
2024-01-16T14:14:46.441Z,3.43
2024-01-16T14:17:14.670Z,4.53
2024-01-16T14:19:43.601Z,3.37
2024-01-16T14:22:12.038Z,3.30
2024-01-16T14:24:40.364Z,3.50
2024-01-16T14:27:08.800Z,3.50
2024-01-16T14:29:40.756Z,4.17
2024-01-16T14:32:10.991Z,3.67
2024-01-16T14:34:39.297Z,3.17
2024-01-16T14:37:07.547Z,3.83
2024-01-16T14:39:37.360Z,3.97
2024-01-16T14:42:07.155Z,3.30
2024-01-16T14:44:35.601Z,4.20
2024-01-16T14:47:05.122Z,4.20
2024-01-16T14:49:35.564Z,3.30
2024-01-16T14:52:04.276Z,4.60
2024-01-16T14:54:32.716Z,3.63
2024-01-16T14:57:01.106Z,3.80
2024-01-16T14:59:29.518Z,3.70
2024-01-16T15:01:57.756Z,4.50
2024-01-16T15:04:26.025Z,5.10
2024-01-16T15:06:56.779Z,4.20
2024-01-16T15:09:25.197Z,3.70
2024-01-16T15:11:53.932Z,3.70
2024-01-16T15:14:22.163Z,3.93
2024-01-16T15:16:49.373Z,3.60
2024-01-16T15:19:17.563Z,3.77
2024-01-16T15:21:46.025Z,4.40
2024-01-16T15:24:21.065Z,3.83
2024-01-16T15:26:49.323Z,3.30
2024-01-16T15:29:17.565Z,3.53
2024-01-16T15:31:45.754Z,4.00
2024-01-16T15:34:16.724Z,4.90
2024-01-16T15:36:46.033Z,4.80
2024-01-16T15:39:17.721Z,3.50
2024-01-16T15:41:46.270Z,4.30
2024-01-16T15:44:15.182Z,3.40
2024-01-16T15:46:57.167Z,3.30
2024-01-16T15:49:26.094Z,4.37
2024-01-16T15:51:55.116Z,3.40
2024-01-16T15:54:25.122Z,3.47
2024-01-16T15:56:53.840Z,3.87
2024-01-16T15:59:22.523Z,3.47
2024-01-16T16:01:51.932Z,3.30
2024-01-16T16:04:20.314Z,4.40
2024-01-16T16:06:48.670Z,3.63
2024-01-16T16:09:17.763Z,3.23
2024-01-16T16:11:47.759Z,3.90
2024-01-16T16:14:17.215Z,3.87
2024-01-16T16:16:46.556Z,3.80
2024-01-16T16:19:15.491Z,5.03
2024-01-16T16:21:46.077Z,4.60
2024-01-16T16:24:14.505Z,5.30
2024-01-16T16:26:44.576Z,5.60
2024-01-16T16:29:15.154Z,4.33
2024-01-16T16:31:44.339Z,4.28
2024-01-16T16:34:16.641Z,4.67
2024-01-16T16:36:46.094Z,4.77
2024-01-16T16:39:17.574Z,5.43
2024-01-16T16:41:45.994Z,4.05
2024-01-16T16:44:15.667Z,5.03
2024-01-16T16:46:43.876Z,5.90
2024-01-16T16:49:12.076Z,6.23
2024-01-16T16:51:43.044Z,5.80
2024-01-16T16:54:12.780Z,5.43
2024-01-16T16:56:42.172Z,5.10
2024-01-16T16:59:10.971Z,4.90
2024-01-16T17:01:40.749Z,4.50
2024-01-16T17:04:09.369Z,5.10
2024-01-16T17:06:37.863Z,4.57
2024-01-16T17:09:07.545Z,3.97
2024-01-16T17:11:35.938Z,4.77
2024-01-16T17:14:04.792Z,4.17
2024-01-16T17:16:33.245Z,5.30
2024-01-16T17:19:04.701Z,4.07
2024-01-16T17:21:33.005Z,4.18
2024-01-16T17:24:01.539Z,4.18
2024-01-16T17:26:31.494Z,4.15
2024-01-16T17:29:02.064Z,4.45
2024-01-16T17:31:30.669Z,5.20
2024-01-16T17:33:59.313Z,5.05
2024-01-16T17:36:30.251Z,5.57
2024-01-16T17:39:00.943Z,5.50
2024-01-16T17:41:31.110Z,4.97
2024-01-16T17:44:00.756Z,5.43
2024-01-16T17:46:28.895Z,6.33
2024-01-16T17:48:57.813Z,5.70
2024-01-16T17:51:27.875Z,6.20
2024-01-16T17:53:56.861Z,5.07
2024-01-16T17:56:26.712Z,6.23
2024-01-16T17:58:55.950Z,6.20
2024-01-16T18:01:24.156Z,6.70
2024-01-16T18:03:53.407Z,5.75
2024-01-16T18:06:23.477Z,5.30
2024-01-16T18:08:53.371Z,6.57
2024-01-16T18:11:22.102Z,5.80
2024-01-16T18:13:50.291Z,6.53
2024-01-16T18:16:18.847Z,5.70
2024-01-16T18:18:47.422Z,6.65
2024-01-16T18:21:15.894Z,6.40
2024-01-16T18:23:44.197Z,6.70
2024-01-16T18:26:15.821Z,10.15
2024-01-16T18:28:44.472Z,7.80
2024-01-16T18:31:14.629Z,6.35
2024-01-16T18:33:44.610Z,5.65
2024-01-16T18:36:13.696Z,6.45
2024-01-16T18:38:46.209Z,5.45
2024-01-16T18:41:15.893Z,6.70
2024-01-16T18:43:45.042Z,5.63
2024-01-16T18:46:16.071Z,6.53
2024-01-16T18:48:46.238Z,7.18
2024-01-16T18:51:14.914Z,6.28
2024-01-16T18:53:43.175Z,6.38
2024-01-16T18:56:16.245Z,6.03
2024-01-16T18:58:44.956Z,6.07
2024-01-16T19:01:14.493Z,6.10
2024-01-16T19:03:42.869Z,7.47
2024-01-16T19:06:14.480Z,7.78
2024-01-16T19:08:44.019Z,7.65
2024-01-16T19:11:12.447Z,6.90
2024-01-16T19:13:43.686Z,6.68
2024-01-16T19:16:12.738Z,6.65
2024-01-16T19:18:42.561Z,7.57
2024-01-16T19:21:10.955Z,6.38
2024-01-16T19:23:40.109Z,8.60
2024-01-16T19:26:09.373Z,6.22
2024-01-16T19:28:37.585Z,8.13
2024-01-16T19:31:07.621Z,7.60
2024-01-16T19:33:36.147Z,6.70
2024-01-16T19:36:06.657Z,6.43
2024-01-16T19:38:35.431Z,8.80
2024-01-16T19:41:04.089Z,7.88
2024-01-16T19:43:32.330Z,7.80
2024-01-16T19:46:01.461Z,6.72
2024-01-16T19:48:31.267Z,6.93
2024-01-16T19:51:00.972Z,7.68
2024-01-16T19:53:29.685Z,6.80
2024-01-16T19:56:00.023Z,7.88
2024-01-16T19:58:28.638Z,7.68
2024-01-16T20:00:57.028Z,8.18
2024-01-16T20:03:25.446Z,8.32
2024-01-16T20:05:55.159Z,7.18
2024-01-16T20:08:25.577Z,8.00
2024-01-16T20:10:53.922Z,6.68
2024-01-16T20:13:22.112Z,7.07
2024-01-16T20:15:51.174Z,7.07
2024-01-16T20:18:19.604Z,8.15
2024-01-16T20:20:48.168Z,6.57
2024-01-16T20:23:17.734Z,7.05
2024-01-16T20:25:46.056Z,7.30
2024-01-16T20:28:15.565Z,7.28
2024-01-16T20:30:45.367Z,6.78
2024-01-16T20:33:13.941Z,6.47
2024-01-16T20:35:42.295Z,7.78
2024-01-16T20:38:10.845Z,6.72
2024-01-16T20:40:42.935Z,6.47
2024-01-16T20:43:11.155Z,8.10
2024-01-16T20:45:39.388Z,8.18
2024-01-16T20:48:08.516Z,6.70
2024-01-16T20:50:36.848Z,7.50
2024-01-16T20:53:05.455Z,7.70
2024-01-16T20:55:35.817Z,6.55
2024-01-16T20:58:05.566Z,7.13
2024-01-16T21:00:35.171Z,7.30
2024-01-16T21:03:08.421Z,7.40
2024-01-16T21:05:37.392Z,8.05
2024-01-16T21:08:07.193Z,7.13
2024-01-16T21:10:35.506Z,8.25
2024-01-16T21:13:05.750Z,8.07
2024-01-16T21:15:34.029Z,7.60
2024-01-16T21:18:04.863Z,7.13
2024-01-16T21:20:34.009Z,8.95
2024-01-16T21:23:02.466Z,9.02
2024-01-16T21:25:31.569Z,7.55
2024-01-16T21:27:59.882Z,7.28
2024-01-16T21:30:29.483Z,8.73
2024-01-16T21:32:58.315Z,8.02
2024-01-16T21:35:26.652Z,8.57
2024-01-16T21:37:55.566Z,7.82
2024-01-16T21:40:23.760Z,8.80
2024-01-16T21:42:52.709Z,9.30
2024-01-16T21:45:22.095Z,9.15
2024-01-16T21:47:51.660Z,10.02
2024-01-16T21:50:26.303Z,10.27
2024-01-16T21:53:01.920Z,8.93
2024-01-16T21:55:30.140Z,10.63
2024-01-16T21:57:58.298Z,9.20
2024-01-16T22:00:26.539Z,10.13
2024-01-16T22:02:58.756Z,9.73
2024-01-16T22:05:28.454Z,10.50
2024-01-16T22:07:56.717Z,8.25
2024-01-16T22:10:25.221Z,9.98
2024-01-16T22:12:53.407Z,10.32
2024-01-16T22:15:21.934Z,9.75
2024-01-16T22:17:50.350Z,9.88
2024-01-16T22:20:20.430Z,9.40
2024-01-16T22:22:48.640Z,9.35
2024-01-16T22:25:17.150Z,8.70
2024-01-16T22:27:45.400Z,8.90
2024-01-16T22:30:15.515Z,9.02
2024-01-16T22:32:44.968Z,8.65
2024-01-16T22:35:13.298Z,8.45
2024-01-16T22:37:47.802Z,9.48
2024-01-16T22:40:17.323Z,7.20
2024-01-16T22:42:45.948Z,9.85
2024-01-16T22:45:15.564Z,8.82
2024-01-16T22:47:44.435Z,8.98
2024-01-16T22:50:13.374Z,9.68
2024-01-16T22:52:43.324Z,9.52
2024-01-16T22:55:11.746Z,7.82
2024-01-16T22:57:39.952Z,9.63
2024-01-16T23:00:19.312Z,8.60
2024-01-16T23:02:48.317Z,8.98
2024-01-16T23:05:18.574Z,9.55
2024-01-16T23:07:48.417Z,8.05
2024-01-16T23:10:18.179Z,8.55
2024-01-16T23:12:46.655Z,9.90
2024-01-16T23:15:16.378Z,8.15
2024-01-16T23:17:45.017Z,9.73
2024-01-16T23:20:15.253Z,8.60
2024-01-16T23:22:43.948Z,8.68
2024-01-16T23:25:14.418Z,9.27
2024-01-16T23:27:44.687Z,9.27
2024-01-16T23:30:14.036Z,9.40
2024-01-16T23:32:42.927Z,8.73
2024-01-16T23:35:11.461Z,8.40
2024-01-16T23:37:41.449Z,8.40
2024-01-16T23:40:13.111Z,7.97
2024-01-16T23:42:42.851Z,8.00
2024-01-16T23:45:20.492Z,8.43
2024-01-16T23:47:56.742Z,9.80
2024-01-16T23:50:26.595Z,8.15
2024-01-16T23:52:55.053Z,8.10
2024-01-16T23:55:24.319Z,8.70
2024-01-16T23:57:55.509Z,8.52
